Date,TemperatureHighF,TemperatureAvgF,TemperatureLowF,DewpointHighF,DewpointAvgF,DewpointLowF,HumidityHigh,HumidityAvg,HumidityLow,PressureMaxIn,PressureMinIn,WindSpeedMaxMPH,WindSpeedAvgMPH,GustSpeedMaxMPH,PrecipitationSumIn
2013-1-1,29,22,16,19,14,10,81,71,58,30.38,30.23,9,2,9,0.00
2013-1-2,36,25,16,26,17,8,78,72,67,30.33,30.20,14,3,14,0.00
2013-1-3,38,31,26,29,23,19,80,72,62,30.49,30.31,8,2,9,0.00
2013-1-4,42,30,22,30,22,16,81,74,61,30.47,30.31,12,2,12,0.00
2013-1-5,45,37,32,35,29,23,73,70,67,30.31,30.14,14,4,14,0.00
2013-1-6,39,30,24,26,21,17,75,69,54,30.47,30.24,11,3,11,0.00
2013-1-7,49,37,28,32,25,20,71,62,49,30.36,30.13,17,4,17,0.00
2013-1-8,54,44,36,36,32,26,70,63,50,30.27,30.06,16,4,16,0.00
2013-1-9,55,42,32,38,31,26,78,65,49,30.49,30.27,6,1,6,0.00
2013-1-10,50,44,39,47,38,29,90,80,56,30.42,29.82,11,3,11,0.06
2013-1-11,59,55,50,49,47,44,89,76,61,29.84,29.68,20,6,20,0.00
2013-1-12,57,32,23,43,19,12,69,59,44,30.18,29.83,19,5,19,0.00
2013-1-13,27,21,16,14,9,7,68,61,51,30.42,30.12,13,3,13,0.00
2013-1-14,32,22,14,14,10,6,72,60,44,30.56,30.42,11,1,11,0.00
2013-1-15,33,24,16,16,12,8,74,61,46,30.45,30.25,5,1,5,0.00
2013-1-16,45,32,20,28,20,10,70,62,51,30.26,30.11,13,3,13,0.00
2013-1-17,47,38,31,30,27,24,80,66,50,30.55,30.26,11,3,11,0.00
2013-1-18,55,43,33,35,30,24,73,60,46,30.48,30.11,20,7,20,0.00
2013-1-19,59,48,40,37,32,27,68,53,39,30.33,30.06,15,5,15,0.00
2013-1-20,44,31,23,28,14,7,62,48,40,30.46,30.33,14,3,14,0.00
2013-1-21,26,21,18,12,7,3,67,55,44,30.51,30.43,11,2,11,0.00
2013-1-22,31,22,16,12,7,3,61,52,45,30.47,30.33,8,2,8,0.00
2013-1-23,46,30,17,27,16,7,67,56,44,30.49,30.25,12,2,12,0.00
2013-1-24,28,22,11,13,7,0,62,53,44,30.57,30.23,12,3,12,0.00
2013-1-25,47,33,24,25,17,11,58,50,41,30.32,30.20,8,1,8,0.00
2013-1-26,56,42,31,32,25,19,64,52,38,30.37,30.17,10,2,10,0.00
2013-1-27,61,49,41,53,41,27,80,73,49,30.18,29.84,19,6,19,0.01
2013-1-28,74,66,59,60,57,54,83,72,60,29.96,29.77,20,6,20,0.00
2013-1-29,68,52,36,60,47,34,90,84,76,29.77,29.54,17,5,20,0.23
2013-1-30,37,30,26,34,24,17,89,80,68,30.02,29.57,19,6,19,0.00
2013-1-31,26,17,11,19,7,1,77,65,57,30.54,30.02,13,4,13,0.00
2013-2-1,29,19,10,16,9,1,70,64,57,30.53,30.21,12,3,12,0.00
2013-2-2,47,37,26,34,26,16,68,65,60,30.29,30.16,17,3,17,0.00
2013-2-3,49,40,33,31,26,21,72,58,44,30.36,29.94,11,3,11,0.00
2013-2-4,47,40,27,32,27,20,75,60,54,30.08,29.86,13,3,13,0.00
2013-2-5,56,39,26,37,27,19,80,64,43,30.19,29.97,14,2,14,0.00
2013-2-6,61,47,34,42,34,24,72,60,48,30.19,29.98,15,4,15,0.00
2013-2-7,50,45,34,44,38,28,85,78,62,30.26,29.95,13,3,13,0.11
2013-2-8,43,36,30,32,28,24,80,73,63,30.43,30.27,9,3,9,0.00
2013-2-9,48,38,29,37,30,24,84,76,60,30.31,29.84,13,4,13,0.01
2013-2-10,52,45,37,46,35,24,89,69,51,30.00,29.58,29,9,29,0.02
2013-2-11,47,38,32,30,25,21,69,59,46,30.24,30.00,15,4,15,0.00
2013-2-12,44,36,28,31,25,20,75,64,53,30.25,30.04,5,1,5,0.00
2013-2-13,54,41,30,33,27,22,73,57,41,30.04,29.90,15,4,15,0.00
2013-2-14,52,43,35,34,27,22,69,55,42,30.25,29.92,13,4,13,0.00
2013-2-15,38,31,23,24,16,11,70,52,39,30.45,30.25,15,4,15,0.00
2013-2-16,36,31,20,25,20,14,77,65,56,30.39,30.14,10,3,10,0.02
2013-2-17,57,42,27,37,28,18,71,58,46,30.15,29.77,12,4,12,0.00
2013-2-18,54,44,28,45,32,17,77,63,48,30.16,29.64,19,7,19,0.00
2013-2-19,34,27,22,17,10,4,69,51,33,30.42,30.16,15,4,15,0.01
2013-2-20,25,21,16,12,7,0,64,53,44,30.45,30.25,9,2,9,0.00
2013-2-21,26,23,20,22,17,11,86,78,64,30.26,29.84,17,4,17,0.00
2013-2-22,33,26,18,22,18,11,83,73,62,30.15,29.86,13,3,13,0.03
2013-2-23,35,23,11,22,14,5,78,69,57,30.15,30.03,9,2,9,0.01
2013-2-24,46,35,19,29,24,13,79,64,50,30.11,29.99,9,2,9,0.00
2013-2-25,37,33,29,29,25,21,88,74,65,30.04,29.73,13,3,13,0.01
2013-2-26,33,31,30,29,28,27,91,88,85,29.93,29.63,12,3,12,0.02
2013-2-27,35,32,29,29,26,25,87,81,72,30.12,29.90,14,4,14,0.00
2013-2-28,34,31,28,27,26,23,88,81,76,30.28,30.11,13,4,13,0.01
2013-3-1,34,30,28,33,29,26,99,95,80,30.38,30.23,11,4,11,0.00
2013-3-2,96,61,35,95,33,-28,99,49,1,30.43,30.27,9,2,9,0.03
2013-3-3,140,84,63,62,22,5,13,1,1,30.10,29.84,12,4,12,0.03
2013-3-4,139,115,99,62,45,33,7,1,1,29.86,29.77,8,3,8,0.01
2013-3-5,140,131,118,62,56,10,1,1,1,30.41,30.40,8,6,8,0.00
2013-3-6,140,-3,-39,96,-25,-81,99,52,1,30.50,30.36,12,3,12,0.01
2013-3-7,139,-11,-39,62,-35,-81,99,44,1,30.37,30.22,8,3,8,0.00
2013-3-8,135,-9,-39,60,-33,-78,99,46,1,30.29,30.07,10,4,10,0.00
2013-3-9,14,-35,-39,-11,-44,-76,99,71,1,30.08,29.69,14,4,14,0.06
2013-3-10,62,-16,-39,50,-20,-45,99,84,71,29.97,29.64,13,4,13,0.00
2013-3-11,38,33,28,28,25,22,95,73,60,30.10,29.93,13,4,13,0.01
2013-3-12,48,38,31,32,25,21,74,61,43,30.41,30.08,17,4,17,0.00
2013-3-13,47,36,26,28,22,18,72,59,44,30.56,30.39,10,2,10,0.00
2013-3-14,70,51,35,45,34,23,62,53,39,30.40,30.14,15,4,15,0.00
2013-3-15,80,70,42,52,47,34,72,45,35,30.18,29.76,14,5,15,0.00
2013-3-16,62,46,38,44,34,27,75,64,52,30.15,29.79,17,4,17,0.00
2013-3-17,38,35,33,31,28,25,87,78,65,30.15,29.84,12,4,12,0.04
2013-3-18,53,42,35,37,30,18,87,67,36,30.15,29.82,15,4,15,0.01
2013-3-19,42,37,32,34,25,16,81,63,46,30.33,30.13,7,1,7,0.02
2013-3-20,39,33,26,31,16,10,84,52,35,30.46,30.20,17,4,17,0.00
2013-3-21,30,28,26,25,18,12,81,64,49,30.20,29.99,12,2,12,0.00
2013-3-22,35,33,30,30,28,25,85,81,78,30.09,30.02,9,2,9,0.02
2013-3-23,39,35,33,30,29,28,88,79,64,30.11,29.93,12,2,12,0.03
2013-3-24,34,31,26,30,26,20,89,84,75,30.15,29.87,14,4,14,0.02
2013-3-25,38,32,22,27,24,16,83,74,64,30.40,30.12,12,4,12,0.00
2013-3-26,41,31,23,27,22,18,81,70,56,30.48,30.38,8,2,8,0.22
2013-3-27,51,40,26,34,29,19,76,65,52,30.38,30.28,9,3,9,0.00
2013-3-28,64,51,38,43,37,29,74,59,45,30.31,30.22,10,2,10,0.00
2013-3-29,68,56,42,45,40,36,77,57,38,30.30,30.18,10,2,10,0.00
2013-3-30,68,57,51,57,48,40,82,74,63,30.18,29.96,10,2,10,0.01
2013-3-31,66,56,48,49,41,30,86,60,36,30.07,30.00,17,3,17,0.00
2013-4-1,48,42,36,32,22,17,69,44,33,30.36,30.07,13,3,13,0.00
2013-4-2,51,41,32,26,21,17,57,46,36,30.41,30.33,9,2,9,0.00
2013-4-3,54,43,33,28,24,20,62,46,35,30.44,30.32,10,2,10,0.00
2013-4-4,62,50,40,31,26,20,53,40,28,30.32,30.15,10,1,10,0.00
2013-4-5,71,56,40,46,37,27,66,49,39,30.26,29.97,13,3,13,0.00
2013-4-6,77,64,54,52,44,37,58,49,33,29.97,29.77,16,6,21,0.00
2013-4-7,74,62,48,52,46,38,80,58,44,29.97,29.76,10,2,10,0.19
2013-4-8,59,58,56,55,53,52,88,84,81,29.82,29.78,10,2,10,0.09
2013-4-11,35,35,35,31,31,31,87,87,86,29.84,29.82,10,6,10,0.00
2013-4-14,75,64,52,54,49,36,72,58,46,29.82,29.60,24,6,24,0.07
2013-4-15,57,50,45,42,36,31,79,61,46,30.09,29.82,11,2,11,0.13
2013-4-16,47,44,42,36,33,30,71,63,56,30.22,30.08,12,4,12,0.00
2013-4-17,53,48,45,49,44,36,93,85,71,30.16,29.73,10,2,10,0.42
2013-4-18,47,41,38,46,39,34,99,92,81,30.02,29.63,21,5,21,0.33
2013-4-19,54,45,38,42,20,-8,99,49,6,30.19,29.98,18,5,18,0.00
2013-4-20,59,50,40,48,18,-16,99,34,1,30.34,30.18,10,2,10,0.00
2013-4-21,70,58,48,45,34,14,68,41,27,30.32,30.20,16,4,16,0.00
2013-4-22,70,59,51,54,38,32,95,49,31,30.24,30.00,11,4,11,0.02
2013-4-23,57,54,51,57,53,51,99,99,96,30.16,30.09,14,4,14,0.11
2013-4-24,140,132,125,62,58,52,1,1,1,30.28,30.26,10,4,10,0.00
2013-4-25,139,101,81,62,34,19,1,1,1,30.38,30.23,8,3,8,0.00
2013-4-26,90,90,89,90,89,88,99,99,99,30.27,30.27,6,3,6,0.00
2013-5-3,67,40,36,46,33,28,85,76,41,30.20,29.99,14,4,14,0.41
2013-5-4,51,43,35,43,37,30,87,81,71,30.12,29.91,8,2,12,0.14
2013-5-5,58,52,46,50,46,41,88,82,75,30.20,30.09,8,2,8,0.02
2013-5-6,70,59,52,57,51,47,86,76,61,30.20,30.12,9,2,9,0.00
2013-5-7,79,65,50,59,52,45,88,66,41,30.18,30.07,6,1,9,0.00
2013-5-8,77,66,59,62,56,50,83,69,56,30.11,29.99,11,2,11,0.02
2013-5-9,79,67,60,63,59,56,88,76,55,30.04,29.94,11,1,11,0.48
2013-5-10,67,60,55,56,52,48,85,76,58,30.14,30.00,10,2,10,0.07
2013-5-11,67,58,51,49,39,29,82,53,30,30.33,30.13,21,2,21,0.05
2013-5-12,70,56,41,40,35,30,70,46,30,30.37,30.23,7,1,7,0.00
2013-5-13,81,65,48,57,49,39,75,58,43,30.25,30.04,10,2,10,0.00
2013-5-14,94,78,65,59,54,50,68,47,27,30.04,29.91,16,4,16,0.00
2013-5-15,89,77,68,66,60,53,71,56,46,30.01,29.92,10,4,10,0.00
2013-5-16,83,72,64,66,61,57,82,69,53,30.00,29.91,8,2,8,0.00
2013-5-17,78,70,63,64,61,57,83,73,59,30.04,29.96,5,1,5,0.00
2013-5-18,85,74,63,71,65,58,85,74,62,30.03,29.84,10,2,10,0.00
2013-5-19,84,72,63,72,64,59,90,79,65,29.98,29.68,14,3,14,0.74
2013-5-20,78,69,62,70,63,58,87,81,72,29.87,29.71,11,2,11,0.11
2013-5-21,78,68,59,62,55,50,84,64,48,29.89,29.79,10,2,10,0.00
2013-5-22,69,63,58,54,51,49,73,65,58,30.03,29.84,11,2,11,0.00
2013-5-23,69,64,55,56,52,48,76,67,60,30.31,30.04,9,2,9,0.00
2013-5-24,74,64,52,55,50,46,85,64,48,30.40,30.22,10,1,10,0.00
2013-5-25,84,72,62,67,58,48,73,63,52,30.26,30.11,10,3,10,0.00
2013-5-26,85,76,68,71,66,62,82,72,61,30.16,30.00,13,3,13,0.00
2013-5-27,80,72,64,71,65,60,91,78,71,30.05,29.79,12,3,12,1.56
2013-5-28,78,74,71,72,68,65,87,79,73,29.92,29.76,10,2,10,0.04
2013-5-29,81,75,68,70,66,61,84,74,66,29.93,29.75,14,4,14,0.08
2013-5-30,71,65,63,66,61,59,91,87,80,29.86,29.70,14,3,14,1.12
2013-5-31,78,67,59,70,63,56,93,87,74,29.88,29.76,8,1,8,1.67
2013-6-1,72,67,62,65,57,53,88,72,60,30.07,29.79,14,2,14,0.03
2013-6-2,65,60,54,54,50,47,77,72,62,30.18,30.06,8,1,8,0.05
2013-6-3,75,62,49,60,52,44,85,72,58,30.17,30.00,0,0,0,0.00
2013-6-4,75,66,63,67,60,55,88,80,72,30.08,29.96,0,0,0,0.15
2013-6-5,67,64,63,64,61,59,92,88,84,30.08,30.01,0,0,0,1.20
2013-6-6,75,67,60,61,57,52,89,72,54,30.06,30.01,0,0,0,0.00
2013-6-7,76,65,56,58,54,50,85,67,49,30.11,30.01,0,0,0,0.00
2013-6-8,82,69,56,64,58,50,82,67,53,30.04,29.87,0,0,0,0.00
2013-6-9,82,71,64,63,59,54,86,68,41,29.96,29.87,6,0,6,0.30
2013-6-10,88,74,62,63,59,55,79,63,42,30.00,29.93,8,1,8,0.00
2013-6-11,95,82,72,70,66,62,81,61,40,30.00,29.90,12,3,12,0.00
2013-6-12,96,85,76,72,69,61,74,60,45,30.03,29.87,15,4,15,0.00
2013-6-13,85,75,65,64,59,53,70,60,49,30.16,30.02,11,2,11,0.00
2013-6-14,88,77,67,74,67,60,82,71,61,30.12,29.98,10,2,10,0.00
2013-6-15,89,76,67,76,68,62,88,77,60,30.12,29.98,19,2,19,1.02
2013-6-16,83,74,66,74,69,63,91,85,75,30.07,30.00,6,1,6,0.00
2013-6-17,78,72,68,70,67,63,88,83,76,30.10,30.00,10,1,10,0.05
2013-6-18,86,74,65,70,65,62,91,76,52,30.13,30.07,7,1,7,0.00
2013-6-19,87,76,65,71,66,61,86,73,55,30.15,30.05,7,1,7,0.01
2013-6-20,90,80,71,75,70,64,80,71,60,30.12,30.01,10,3,10,0.00
2013-6-21,93,83,75,76,72,69,81,69,54,30.09,30.01,11,4,11,0.00
2013-6-22,93,83,75,74,70,67,77,66,49,30.11,29.96,14,3,14,0.00
2013-6-23,88,81,74,76,71,67,80,71,60,30.06,29.89,11,3,11,0.00
2013-6-24,90,80,75,73,68,66,77,66,52,30.07,29.90,13,4,13,0.00
2013-6-25,88,80,75,74,70,66,85,70,61,30.00,29.84,14,4,14,0.11
2013-6-26,97,86,75,75,68,61,81,57,34,29.99,29.83,9,2,9,0.00
2013-6-27,85,77,71,76,68,63,83,73,59,30.13,29.93,12,1,12,0.30
2013-6-28,86,76,68,70,63,57,90,66,43,30.05,29.96,12,2,12,0.01
2013-6-29,82,74,67,62,57,55,67,57,42,29.98,29.91,13,2,13,0.00
2013-6-30,78,70,62,59,56,53,74,61,50,30.13,29.98,10,2,10,0.00
2013-7-1,81,71,62,58,53,51,71,55,37,30.20,30.13,10,2,10,0.00
2013-7-2,82,71,60,58,54,50,76,57,38,30.23,30.14,8,1,8,0.06
2013-7-3,86,68,60,59,56,54,83,67,38,30.18,30.08,11,1,11,0.90
2013-7-4,84,71,59,64,58,55,87,68,44,30.15,30.05,7,1,7,0.01
2013-7-5,89,76,66,67,61,57,77,60,45,30.11,30.01,8,2,8,0.00
2013-7-6,87,77,70,68,63,59,80,62,51,30.10,30.01,10,2,11,0.01
2013-7-7,91,81,72,70,67,62,89,65,47,30.09,30.03,11,2,11,0.02
2013-7-8,95,84,76,70,66,63,76,57,40,30.15,30.07,9,2,9,0.00
2013-7-9,99,89,82,84,68,55,96,54,26,30.11,29.96,10,3,10,0.00
2013-7-10,138,106,90,86,44,4,43,7,1,30.15,30.00,6,2,6,0.00
2013-7-15,138,57,3,92,34,-22,99,67,1,30.28,30.21,4,1,4,0.00
2013-7-16,136,27,-39,68,7,-48,99,70,1,30.36,30.27,4,1,4,0.00
2013-7-17,140,30,-39,72,4,-94,83,49,1,30.42,30.28,4,1,4,0.00
2013-7-18,96,85,74,73,70,66,82,63,42,30.30,30.09,8,1,8,0.12
2013-7-19,97,86,76,71,67,65,71,54,40,30.11,29.96,8,2,9,0.03
2013-7-20,88,80,76,75,70,66,82,71,54,30.04,29.95,8,1,8,0.08
2013-7-21,89,79,72,73,70,67,86,73,57,30.03,29.91,8,1,8,0.01
2013-7-22,95,82,72,76,70,66,85,68,48,29.96,29.88,12,2,12,0.00
2013-7-23,87,80,75,74,69,63,82,70,59,30.04,29.91,9,2,9,0.00
2013-7-24,88,77,68,64,61,59,72,59,43,30.15,30.02,9,2,9,0.00
2013-7-25,84,74,68,68,64,59,86,71,55,30.20,30.10,9,1,9,0.28
2013-7-26,85,75,70,72,66,55,88,74,50,30.15,30.06,9,1,9,0.09
2013-7-27,78,69,61,57,55,50,76,60,46,30.22,30.08,8,1,8,0.00
2013-7-28,75,71,60,57,55,53,78,59,50,30.16,30.11,5,1,5,0.00
2013-7-29,71,67,63,68,62,55,91,84,65,30.19,30.07,7,1,8,0.94
2013-7-30,82,75,71,76,71,68,94,87,76,30.16,30.06,7,1,7,0.26
2013-7-31,85,77,71,70,68,65,88,76,60,30.22,30.13,7,1,7,0.00
2013-8-1,89,78,68,72,67,63,87,71,54,30.20,30.06,6,1,6,0.00
2013-8-2,86,77,69,76,70,64,89,79,70,30.09,29.96,8,1,8,0.33
2013-8-3,84,78,74,74,71,69,85,79,69,30.22,30.00,6,2,8,0.00
2013-8-4,76,72,69,70,66,62,90,82,74,30.25,30.12,9,1,9,0.31
2013-8-5,84,76,71,76,72,68,92,85,74,30.15,29.93,6,1,6,0.00
2013-8-6,88,79,72,77,73,69,92,82,68,29.99,29.90,11,1,11,0.15
2013-8-7,85,78,72,76,72,67,92,82,72,30.04,29.89,13,1,13,0.56
2013-8-8,74,72,70,68,66,64,83,80,76,30.10,29.98,11,1,11,0.00
2013-8-9,74,71,69,69,66,64,87,84,81,30.21,30.08,5,0,5,0.05
2013-8-10,84,73,66,69,64,61,90,76,54,30.29,30.18,8,1,8,0.00
2013-8-11,87,75,64,71,65,58,82,71,58,30.23,30.11,6,1,6,0.03
2013-8-12,83,75,69,71,68,65,91,80,65,30.14,30.05,5,1,10,0.83
2013-8-13,80,73,68,67,63,60,86,72,54,30.23,30.11,8,1,8,0.00
2013-8-14,79,70,64,63,59,55,81,69,55,30.29,30.19,7,1,7,0.00
2013-8-15,74,68,64,62,58,55,76,71,64,30.22,30.10,6,1,6,0.00
2013-8-16,77,69,62,61,58,55,80,69,57,30.25,30.17,9,1,9,0.00
2013-8-17,78,70,58,62,58,53,85,66,51,30.29,30.20,8,1,8,0.00
2013-8-18,83,71,59,65,60,54,84,70,54,30.27,30.16,8,1,8,0.00
2013-8-19,86,74,65,68,64,59,86,71,55,30.21,30.10,7,1,7,0.00
2013-8-20,89,78,69,70,66,62,80,67,52,30.17,30.10,8,2,8,0.00
2013-8-21,90,79,70,71,68,62,79,68,53,30.18,30.10,8,2,8,0.00
2013-8-22,88,79,72,72,69,65,81,72,60,30.20,30.11,5,1,5,0.00
2013-8-23,91,80,72,74,69,66,87,70,50,30.20,30.11,7,1,7,0.00
2013-8-24,91,79,74,75,70,66,82,73,54,30.24,30.14,7,2,7,0.00
2013-8-25,92,83,72,75,71,66,82,67,52,30.31,30.21,8,2,8,0.00
2013-8-26,94,83,74,73,70,67,82,66,49,30.27,30.15,11,2,11,0.00
2013-8-27,94,82,73,71,68,64,79,62,43,30.18,30.09,10,2,10,0.00
2013-8-28,92,82,71,72,68,64,81,64,50,30.16,30.09,9,2,9,0.00
2013-8-29,95,84,75,74,71,68,81,65,48,30.15,30.04,9,2,9,0.00
2013-8-30,99,87,76,74,70,67,75,59,38,30.07,29.94,8,2,9,0.00
2013-8-31,89,83,77,76,71,68,75,67,55,29.98,29.89,8,1,8,0.00
2013-9-1,86,77,69,75,68,61,89,76,59,30.05,29.86,7,1,13,0.44
2013-9-2,82,73,64,64,60,58,82,66,49,30.16,30.04,8,1,8,0.01
2013-9-3,85,72,60,62,58,54,81,64,44,30.21,30.12,6,1,6,0.00
2013-9-4,85,73,62,64,60,55,82,65,46,30.26,30.15,6,0,6,0.00
2013-9-5,87,75,63,66,61,56,82,65,47,30.30,30.20,6,1,6,0.00
2013-9-6,90,77,68,68,63,59,78,63,48,30.24,30.08,7,1,7,0.00
2013-9-7,96,81,70,72,66,61,75,61,44,30.11,29.99,9,2,9,0.00
2013-9-8,100,86,75,72,68,64,70,55,39,30.01,29.92,10,2,10,0.00
2013-9-9,96,84,75,68,65,60,69,53,35,30.05,29.97,11,3,11,0.00
2013-9-10,94,84,72,68,65,61,72,54,40,30.17,30.04,12,3,12,0.00
2013-9-11,94,80,69,66,62,60,73,56,38,30.23,30.12,9,2,9,0.00
2013-9-12,84,76,70,69,63,49,84,65,47,30.25,30.15,12,1,12,0.10
2013-9-13,76,68,59,53,49,47,68,53,42,30.28,30.15,10,1,10,0.00
2013-9-14,78,67,55,54,49,45,73,55,43,30.20,30.04,7,2,7,0.00
2013-9-15,82,71,65,65,58,49,87,65,52,30.23,30.03,8,2,8,0.03
2013-9-16,76,69,63,76,69,63,99,99,88,30.35,30.22,8,2,8,0.16
2013-9-18,89,84,80,85,75,67,99,76,53,30.06,29.92,10,3,10,0.00
2013-9-19,96,90,80,96,62,26,99,55,1,30.00,29.85,9,4,9,0.05